K-storm — V2DV8 — position and weather

sailwx.info

Track history (hours):
 
Tides and Currents Weather Stations Pressure Air Temp Water Temp Dewpoint Dewpoint Depression Visibility Wind Speed Wind Dir Waves Ship Positions

K-storm

Last reported at 2017-Feb-01 05:33 UTC. Time now 2017-Apr-28 21:46 UTC.
Position N 25°31' W 079°41'.
Warning: this ship's position is months out of date.

Length 139 m; draft 5.5 m.

Type: Cargo ship. MMSI: 305350000.

Date/timePositionNaut miles runAvg speedWind from/ knotsBaromVisibWave heightAir tempDewpointWater temp
2017-Feb-01 05:33N 25°31' W 079°41'1313.4
2017-Feb-01 04:34N 25°44' W 079°42'1313.2
2017-Feb-01 03:33N 25°54' W 079°52'1313.2
2017-Feb-01 02:33N 26°04' W 080°02'4 4.3
2017-Feb-01 01:32N 26°04' W 080°07'0 0.0
2017-Feb-01 00:31N 26°04' W 080°07'0 0.0
2017-Jan-31 23:31N 26°04' W 080°07'0 0.0
2017-Jan-31 22:33N 26°04' W 080°07'0 0.0
2017-Jan-31 21:33N 26°04' W 080°07'0 0.0
2017-Jan-31 20:33N 26°04' W 080°07'0 0.0
2017-Jan-31 19:32N 26°04' W 080°07'0 0.0
2017-Jan-31 18:32N 26°04' W 080°07'0 0.0
2017-Jan-31 17:31N 26°04' W 080°07'0 0.0
2017-Jan-31 16:31N 26°04' W 080°07'0 0.0
2017-Jan-31 15:34N 26°04' W 080°07'6 5.6
2017-Jan-31 14:33N 26°05' W 080°01'7 6.8
2017-Jan-31 13:34N 25°59' W 079°57'1212.5
2017-Jan-31 12:33N 25°49' W 079°48'2 2.1
2017-Jan-31 11:33N 25°49' W 079°51'9 9.1
2017-Jan-31 10:33N 25°43' W 079°42'1616.1
2017-Jan-31 09:33N 25°27' W 079°40'  
2017-Jan-25 18:17N 23°17' W 082°26'1215.7
2017-Jan-25 17:30N 23°19' W 082°13'18913.5
2017-Jan-25 03:30N 25°27' W 079°40'1213.1
2017-Jan-25 02:34N 25°39' W 079°42'1212.3
2017-Jan-25 01:33N 25°50' W 079°48'1313.2
2017-Jan-25 00:33N 25°60' W 079°57'10 9.6
2017-Jan-24 23:33N 26°04' W 080°07'1 0.5
2017-Jan-24 22:32N 26°04' W 080°07'0 0.0
2017-Jan-24 21:31N 26°04' W 080°07'0 0.0
2017-Jan-24 20:31N 26°04' W 080°07'0 0.0
2017-Jan-24 19:33N 26°04' W 080°07'0 0.0
2017-Jan-24 18:33N 26°04' W 080°07'0 0.0
2017-Jan-24 17:32N 26°04' W 080°07'0 0.0
2017-Jan-24 16:32N 26°04' W 080°07'0 0.0
2017-Jan-24 15:32N 26°04' W 080°07'0 0.0
2017-Jan-24 14:31N 26°04' W 080°07'0 0.0
2017-Jan-24 13:31N 26°04' W 080°07'0 0.0
2017-Jan-24 12:33N 26°04' W 080°07'4 3.7
2017-Jan-24 11:34N 26°06' W 080°04'8 8.0
2017-Jan-24 10:34N 26°00' W 079°57'1110.5
2017-Jan-24 09:33N 25°53' W 079°49'1515.3
2017-Jan-24 08:33N 25°39' W 079°42'  
Track history (hours):
 
Tides and Currents Weather Stations Pressure Air Temp Water Temp Dewpoint Dewpoint Depression Visibility Wind Speed Wind Dir Waves Ship Positions

K-storm

Last reported at 2017-Feb-01 05:33 UTC. Time now 2017-Apr-28 21:46 UTC.
Position N 25°31' W 079°41'.
Warning: this ship's position is months out of date.

Length 139 m; draft 5.5 m.

Type: Cargo ship. MMSI: 305350000.

Date/timePositionNaut miles runAvg speedWind from/ knotsBaromVisibWave heightAir tempDewpointWater temp
2017-Feb-01 05:33N 25°31' W 079°41'1313.4
2017-Feb-01 04:34N 25°44' W 079°42'1313.2
2017-Feb-01 03:33N 25°54' W 079°52'1313.2
2017-Feb-01 02:33N 26°04' W 080°02'4 4.3
2017-Feb-01 01:32N 26°04' W 080°07'0 0.0
2017-Feb-01 00:31N 26°04' W 080°07'0 0.0
2017-Jan-31 23:31N 26°04' W 080°07'0 0.0
2017-Jan-31 22:33N 26°04' W 080°07'0 0.0
2017-Jan-31 21:33N 26°04' W 080°07'0 0.0
2017-Jan-31 20:33N 26°04' W 080°07'0 0.0
2017-Jan-31 19:32N 26°04' W 080°07'0 0.0
2017-Jan-31 18:32N 26°04' W 080°07'0 0.0
2017-Jan-31 17:31N 26°04' W 080°07'0 0.0
2017-Jan-31 16:31N 26°04' W 080°07'0 0.0
2017-Jan-31 15:34N 26°04' W 080°07'6 5.6
2017-Jan-31 14:33N 26°05' W 080°01'7 6.8
2017-Jan-31 13:34N 25°59' W 079°57'1212.5
2017-Jan-31 12:33N 25°49' W 079°48'2 2.1
2017-Jan-31 11:33N 25°49' W 079°51'9 9.1
2017-Jan-31 10:33N 25°43' W 079°42'1616.1
2017-Jan-31 09:33N 25°27' W 079°40'  
2017-Jan-25 18:17N 23°17' W 082°26'1215.7
2017-Jan-25 17:30N 23°19' W 082°13'18913.5
2017-Jan-25 03:30N 25°27' W 079°40'1213.1
2017-Jan-25 02:34N 25°39' W 079°42'1212.3
2017-Jan-25 01:33N 25°50' W 079°48'1313.2
2017-Jan-25 00:33N 25°60' W 079°57'10 9.6
2017-Jan-24 23:33N 26°04' W 080°07'1 0.5
2017-Jan-24 22:32N 26°04' W 080°07'0 0.0
2017-Jan-24 21:31N 26°04' W 080°07'0 0.0
2017-Jan-24 20:31N 26°04' W 080°07'0 0.0
2017-Jan-24 19:33N 26°04' W 080°07'0 0.0
2017-Jan-24 18:33N 26°04' W 080°07'0 0.0
2017-Jan-24 17:32N 26°04' W 080°07'0 0.0
2017-Jan-24 16:32N 26°04' W 080°07'0 0.0
2017-Jan-24 15:32N 26°04' W 080°07'0 0.0
2017-Jan-24 14:31N 26°04' W 080°07'0 0.0
2017-Jan-24 13:31N 26°04' W 080°07'0 0.0
2017-Jan-24 12:33N 26°04' W 080°07'4 3.7
2017-Jan-24 11:34N 26°06' W 080°04'8 8.0
2017-Jan-24 10:34N 26°00' W 079°57'1110.5
2017-Jan-24 09:33N 25°53' W 079°49'1515.3
2017-Jan-24 08:33N 25°39' W 079°42'  

Dump ship's entire track history